createdAt,value
2022-11-22T00:00:53.711Z,1.04
2022-11-22T00:03:20.217Z,1.10
2022-11-22T00:05:46.695Z,1.12
2022-11-22T00:08:13.182Z,1.22
2022-11-22T00:10:39.630Z,1.23
2022-11-22T00:13:06.181Z,1.25
2022-11-22T00:15:32.620Z,1.27
2022-11-22T00:17:59.105Z,1.24
2022-11-22T00:20:25.869Z,1.25
2022-11-22T00:22:52.297Z,1.23
2022-11-22T00:25:18.807Z,1.25
2022-11-22T00:27:45.251Z,1.26
2022-11-22T00:30:12.975Z,1.26
2022-11-22T00:32:39.510Z,1.27
2022-11-22T00:35:06.198Z,1.28
2022-11-22T00:37:32.683Z,1.21
2022-11-22T00:39:59.230Z,1.20
2022-11-22T00:42:25.677Z,1.19
2022-11-22T00:44:52.120Z,1.16
2022-11-22T00:47:18.591Z,1.17
2022-11-22T00:49:45.117Z,1.13
2022-11-22T00:52:11.602Z,1.06
2022-11-22T00:54:38.076Z,1.02
2022-11-22T00:57:04.510Z,0.94
2022-11-22T00:59:31.276Z,0.89
2022-11-22T01:01:57.963Z,0.88
2022-11-22T01:04:24.380Z,0.85
2022-11-22T01:06:50.790Z,0.88
2022-11-22T01:09:18.948Z,0.93
2022-11-22T01:11:45.384Z,0.89
2022-11-22T01:14:11.801Z,0.85
2022-11-22T01:16:38.267Z,0.78
2022-11-22T01:19:04.678Z,0.69
2022-11-22T01:21:31.111Z,0.67
2022-11-22T01:23:57.614Z,0.64
2022-11-22T01:26:24.031Z,0.60
2022-11-22T01:28:50.441Z,0.56
2022-11-22T01:31:16.881Z,0.54
2022-11-22T01:33:43.404Z,0.61
2022-11-22T01:36:09.795Z,0.61
2022-11-22T01:38:36.276Z,0.50
2022-11-22T01:41:02.747Z,0.48
2022-11-22T01:43:29.247Z,0.40
2022-11-22T01:45:56.366Z,0.31
2022-11-22T01:48:28.263Z,0.22
2022-11-22T01:50:56.553Z,0.18
2022-11-22T01:53:24.840Z,0.15
2022-11-22T01:55:51.471Z,0.13
2022-11-22T01:58:17.983Z,0.11
2022-11-22T02:00:44.558Z,0.10
2022-11-22T02:03:11.696Z,0.10
2022-11-22T02:05:38.235Z,0.12
2022-11-22T02:08:07.180Z,0.12
2022-11-22T02:10:35.609Z,0.10
2022-11-22T02:13:02.054Z,0.09
2022-11-22T02:15:28.705Z,0.10
2022-11-22T02:17:57.035Z,0.06
2022-11-22T02:20:23.712Z,0.00
2022-11-22T02:22:56.398Z,0.05
2022-11-22T02:25:25.959Z,0.05
2022-11-22T02:27:52.379Z,0.10
2022-11-22T02:30:18.884Z,0.13
2022-11-22T02:32:45.312Z,0.26
2022-11-22T02:35:27.524Z,0.32
2022-11-22T02:38:01.363Z,0.26
2022-11-22T02:40:28.001Z,0.24
2022-11-22T02:42:59.146Z,0.23
2022-11-22T02:45:25.597Z,0.29
2022-11-22T02:47:52.092Z,0.25
2022-11-22T02:50:18.519Z,0.24
2022-11-22T02:52:44.939Z,0.22
2022-11-22T02:55:11.333Z,0.30
2022-11-22T02:57:37.783Z,0.30
2022-11-22T03:00:04.470Z,0.32
2022-11-22T03:02:30.912Z,0.29
2022-11-22T03:04:57.360Z,0.27
2022-11-22T03:07:23.853Z,0.27
2022-11-22T03:09:50.341Z,0.23
2022-11-22T03:12:16.934Z,0.24
2022-11-22T03:14:43.395Z,0.23
2022-11-22T03:17:09.913Z,0.21
2022-11-22T03:19:36.556Z,0.20
2022-11-22T03:22:03.036Z,0.20
2022-11-22T03:24:29.627Z,0.19
2022-11-22T03:26:56.073Z,0.17
2022-11-22T03:29:22.640Z,0.12
2022-11-22T03:31:49.098Z,0.11
2022-11-22T03:34:15.631Z,0.10
2022-11-22T03:36:42.229Z,0.13
2022-11-22T03:39:08.669Z,0.17
2022-11-22T03:41:35.113Z,0.15
2022-11-22T03:44:01.719Z,0.09
2022-11-22T03:46:28.162Z,0.05
2022-11-22T03:48:54.594Z,0.03
2022-11-22T03:51:21.214Z,0.02
2022-11-22T03:53:47.658Z,0.02
2022-11-22T03:56:14.103Z,-0.01
2022-11-22T03:58:40.600Z,0.00
2022-11-22T04:01:09.762Z,-0.01
2022-11-22T04:03:38.460Z,-0.04
2022-11-22T04:06:04.917Z,-0.02
2022-11-22T04:08:31.409Z,-0.04
2022-11-22T04:10:57.928Z,-0.07
2022-11-22T04:13:44.380Z,-0.06
2022-11-22T04:16:10.849Z,-0.09
2022-11-22T04:18:37.258Z,-0.11
2022-11-22T04:21:22.230Z,-0.12
2022-11-22T04:24:08.648Z,-0.15
2022-11-22T04:26:35.107Z,-0.18
2022-11-22T04:29:09.746Z,-0.21
2022-11-22T04:31:55.698Z,-0.22
2022-11-22T04:34:22.126Z,-0.23
2022-11-22T04:36:48.536Z,-0.22
2022-11-22T04:39:15.020Z,-0.22
2022-11-22T04:41:41.462Z,-0.15
2022-11-22T04:44:27.519Z,-0.13
2022-11-22T04:46:54.011Z,-0.14
2022-11-22T04:49:20.458Z,-0.15
2022-11-22T04:52:05.551Z,-0.18
2022-11-22T04:54:31.964Z,-0.24
2022-11-22T04:56:58.443Z,-0.26
2022-11-22T04:59:25.049Z,-0.28
2022-11-22T05:01:52.448Z,-0.29
2022-11-22T05:04:18.900Z,-0.27
2022-11-22T05:06:45.309Z,-0.28
2022-11-22T05:09:11.733Z,-0.29
2022-11-22T05:11:38.149Z,-0.28
2022-11-22T05:14:04.575Z,-0.30
2022-11-22T05:16:30.986Z,-0.28
2022-11-22T05:19:00.381Z,-0.30
2022-11-22T05:21:27.321Z,-0.33
2022-11-22T05:23:56.862Z,-0.32
2022-11-22T05:26:27.497Z,-0.33
2022-11-22T05:28:54.018Z,-0.33
2022-11-22T05:31:23.879Z,-0.32
2022-11-22T05:33:51.199Z,-0.38
2022-11-22T05:36:17.755Z,-0.44
2022-11-22T05:38:44.236Z,-0.42
2022-11-22T05:41:12.157Z,-0.39
2022-11-22T05:43:38.753Z,-0.33
2022-11-22T05:46:06.559Z,-0.29
2022-11-22T05:48:32.995Z,-0.29
2022-11-22T05:50:59.430Z,-0.27
2022-11-22T05:53:25.932Z,-0.22
2022-11-22T05:55:52.362Z,-0.19
2022-11-22T05:58:18.779Z,-0.18
2022-11-22T06:00:45.534Z,-0.11
2022-11-22T06:03:11.968Z,-0.06
2022-11-22T06:05:38.381Z,0.03
2022-11-22T06:08:04.874Z,0.08
2022-11-22T06:10:34.282Z,0.11
2022-11-22T06:13:00.971Z,0.13
2022-11-22T06:15:27.426Z,0.14
2022-11-22T06:17:53.867Z,0.14
2022-11-22T06:20:20.278Z,0.12
2022-11-22T06:22:46.722Z,0.23
2022-11-22T06:25:13.260Z,0.25
2022-11-22T06:27:39.764Z,0.23
2022-11-22T06:30:06.720Z,0.23
2022-11-22T06:32:33.904Z,0.26
2022-11-22T06:35:00.798Z,0.30
2022-11-22T06:37:27.300Z,0.39
2022-11-22T06:39:53.785Z,0.49
2022-11-22T06:42:20.204Z,0.58
2022-11-22T06:44:47.083Z,0.62
2022-11-22T06:47:13.511Z,0.65
2022-11-22T06:49:39.936Z,0.70
2022-11-22T06:52:06.427Z,0.76
2022-11-22T06:54:32.950Z,0.77
2022-11-22T06:56:59.371Z,0.80
2022-11-22T06:59:25.797Z,0.87
2022-11-22T07:01:52.535Z,0.95
2022-11-22T07:04:19.061Z,1.02
2022-11-22T07:06:45.742Z,1.09
2022-11-22T07:09:12.329Z,1.20
2022-11-22T07:11:39.320Z,1.32
2022-11-22T07:14:08.686Z,1.37
2022-11-22T07:16:36.125Z,1.46
2022-11-22T07:19:02.584Z,1.50
2022-11-22T07:21:29.230Z,1.64
2022-11-22T07:23:55.916Z,1.78
2022-11-22T07:26:23.187Z,1.87
2022-11-22T07:28:49.603Z,2.03
2022-11-22T07:31:16.420Z,2.33
2022-11-22T07:33:42.920Z,2.66
2022-11-22T07:36:09.526Z,2.90
2022-11-22T07:38:36.036Z,3.09
2022-11-22T07:41:02.462Z,3.31
2022-11-22T07:43:29.009Z,3.69
2022-11-22T07:46:02.072Z,4.15
2022-11-22T07:48:28.565Z,4.63
2022-11-22T07:50:55.067Z,5.05
2022-11-22T07:53:21.699Z,5.43
2022-11-22T07:55:48.137Z,5.72
2022-11-22T07:58:14.849Z,5.84
2022-11-22T08:00:41.278Z,5.95
2022-11-22T08:03:08.298Z,5.99
2022-11-22T08:05:34.747Z,6.04
2022-11-22T08:08:01.310Z,6.17
2022-11-22T08:10:27.818Z,6.32
2022-11-22T08:12:54.252Z,6.68
2022-11-22T08:15:20.760Z,7.24
2022-11-22T08:17:47.297Z,7.80
2022-11-22T08:20:13.844Z,8.39
2022-11-22T08:22:40.977Z,8.93
2022-11-22T08:25:12.562Z,9.41
2022-11-22T08:27:42.592Z,9.95
2022-11-22T08:30:09.718Z,10.45
2022-11-22T08:32:36.327Z,10.87
2022-11-22T08:35:02.922Z,11.26
2022-11-22T08:37:29.337Z,11.77
2022-11-22T08:39:56.035Z,12.18
2022-11-22T08:42:27.520Z,12.61
2022-11-22T08:44:53.936Z,13.10
2022-11-22T08:47:20.420Z,13.46
2022-11-22T08:49:46.885Z,13.61
2022-11-22T08:52:13.370Z,13.48
2022-11-22T08:54:39.835Z,13.01
2022-11-22T08:57:06.378Z,12.29
2022-11-22T08:59:33.503Z,11.52
2022-11-22T09:02:00.436Z,10.79
2022-11-22T09:04:27.175Z,10.04
2022-11-22T09:09:42.068Z,8.67
2022-11-22T09:12:08.490Z,8.14
2022-11-22T09:14:35.131Z,7.68
2022-11-22T09:17:01.594Z,7.34
2022-11-22T09:19:28.408Z,7.03
2022-11-22T09:21:54.974Z,6.76
2022-11-22T09:24:21.428Z,6.52
2022-11-22T09:26:47.840Z,6.31
2022-11-22T09:29:15.707Z,6.19
2022-11-22T09:31:42.689Z,6.06
2022-11-22T09:34:09.312Z,5.93
2022-11-22T09:36:35.952Z,5.81
2022-11-22T09:39:02.419Z,5.80
2022-11-22T09:41:39.488Z,5.73
2022-11-22T09:44:21.345Z,5.67
2022-11-22T09:46:58.428Z,5.60
2022-11-22T09:49:28.288Z,5.54
2022-11-22T09:52:30.591Z,5.53
2022-11-22T09:54:57.814Z,5.54
2022-11-22T09:57:34.267Z,5.49
2022-11-22T10:00:08.110Z,5.48
2022-11-22T10:02:58.871Z,4.85
2022-11-22T10:05:25.295Z,5.47
2022-11-22T10:07:54.867Z,5.54
2022-11-22T10:10:32.708Z,5.52
2022-11-22T10:13:14.543Z,5.54
2022-11-22T10:15:41.000Z,5.56
2022-11-22T10:18:18.555Z,5.53
2022-11-22T10:20:48.769Z,5.54
2022-11-22T10:23:17.093Z,5.55
2022-11-22T10:25:45.120Z,5.54
2022-11-22T10:28:13.839Z,5.47
2022-11-22T10:30:41.384Z,5.47
2022-11-22T10:33:11.158Z,5.43
2022-11-22T10:35:58.607Z,5.43
2022-11-22T10:38:43.861Z,5.46
2022-11-22T10:41:13.788Z,5.40
2022-11-22T10:43:46.443Z,5.43
2022-11-22T10:46:16.146Z,5.40
2022-11-22T10:48:51.724Z,5.35
2022-11-22T10:51:18.167Z,5.35
2022-11-22T10:53:50.770Z,5.30
2022-11-22T10:56:17.180Z,5.29
2022-11-22T10:58:43.552Z,5.28
2022-11-22T11:01:15.805Z,5.31
2022-11-22T11:03:43.499Z,5.33
2022-11-22T11:06:49.824Z,5.33
2022-11-22T11:12:07.607Z,5.28
2022-11-22T11:14:38.117Z,5.25
2022-11-22T11:17:05.436Z,5.34
2022-11-22T11:19:35.338Z,5.30
2022-11-22T11:22:15.084Z,5.29
2022-11-22T11:24:41.591Z,5.25
2022-11-22T11:27:08.090Z,5.24
2022-11-22T11:29:37.881Z,5.24
2022-11-22T11:32:05.775Z,5.20
2022-11-22T11:34:32.666Z,5.20
2022-11-22T11:36:59.789Z,5.23
2022-11-22T11:39:30.045Z,5.20
2022-11-22T11:41:56.653Z,5.21
2022-11-22T11:44:36.587Z,5.24
2022-11-22T11:47:03.556Z,5.27
2022-11-22T11:49:30.824Z,5.30
2022-11-22T11:51:57.450Z,5.37
2022-11-22T11:54:26.397Z,5.39
2022-11-22T11:56:52.828Z,5.43
2022-11-22T11:59:20.099Z,5.46
2022-11-22T12:01:58.425Z,5.50
2022-11-22T12:04:25.960Z,5.54
2022-11-22T12:07:03.286Z,5.50
2022-11-22T12:09:31.133Z,5.49
2022-11-22T12:11:58.839Z,5.48
2022-11-22T12:14:27.884Z,5.48
2022-11-22T12:17:01.883Z,5.47
2022-11-22T12:19:32.686Z,5.51
2022-11-22T12:22:29.482Z,5.56
2022-11-22T12:25:32.509Z,5.60
2022-11-22T12:28:00.403Z,5.56
2022-11-22T12:30:26.831Z,5.56
2022-11-22T12:33:00.854Z,5.53
2022-11-22T12:35:27.289Z,5.52
2022-11-22T12:38:03.086Z,5.52
2022-11-22T12:40:49.726Z,5.49
2022-11-22T12:43:16.161Z,5.51
2022-11-22T12:45:42.932Z,5.53
2022-11-22T12:48:20.600Z,5.54
2022-11-22T12:50:48.419Z,5.58
2022-11-22T12:53:19.572Z,5.67
2022-11-22T12:55:48.311Z,5.69
2022-11-22T12:58:20.339Z,5.70
2022-11-22T13:01:05.946Z,5.67
2022-11-22T13:03:35.594Z,5.68
2022-11-22T13:06:02.117Z,5.72
2022-11-22T13:09:00.308Z,5.70
2022-11-22T13:11:31.097Z,5.69
2022-11-22T13:14:04.058Z,5.72
2022-11-22T13:16:30.628Z,5.75
2022-11-22T13:19:06.417Z,5.77
2022-11-22T13:21:37.385Z,5.75
2022-11-22T13:24:19.137Z,5.75
2022-11-22T13:26:48.636Z,5.75
2022-11-22T13:29:22.381Z,5.73
2022-11-22T13:32:04.233Z,5.68
2022-11-22T13:34:31.096Z,5.66
2022-11-22T13:37:04.056Z,5.67
2022-11-22T13:39:30.495Z,5.73
2022-11-22T13:41:56.931Z,5.70
2022-11-22T13:44:23.371Z,5.77
2022-11-22T13:46:49.810Z,5.73
2022-11-22T13:49:31.286Z,5.76
2022-11-22T13:52:05.683Z,5.76
2022-11-22T13:54:32.355Z,5.72
2022-11-22T13:56:59.886Z,5.72
2022-11-22T13:59:26.951Z,5.72
2022-11-22T14:02:00.775Z,5.71
2022-11-22T14:04:31.875Z,5.71
2022-11-22T14:07:04.983Z,5.69
2022-11-22T14:09:37.020Z,5.68
2022-11-22T14:12:18.180Z,5.67
2022-11-22T14:15:02.092Z,5.66
2022-11-22T14:17:47.326Z,5.65
2022-11-22T14:20:20.056Z,5.66
2022-11-22T14:22:57.466Z,5.63
2022-11-22T14:25:30.002Z,5.57
2022-11-22T14:28:08.574Z,5.52
2022-11-22T14:30:39.304Z,5.52
2022-11-22T14:33:06.381Z,5.50
2022-11-22T14:35:36.106Z,5.51
2022-11-22T14:38:21.757Z,5.49
2022-11-22T14:40:48.370Z,5.51
2022-11-22T14:43:17.928Z,5.51
2022-11-22T14:45:51.381Z,5.47
2022-11-22T14:48:19.537Z,5.43
2022-11-22T14:50:50.538Z,5.43
2022-11-22T14:53:21.485Z,5.42
2022-11-22T14:55:49.085Z,5.39
2022-11-22T14:58:16.069Z,5.31
2022-11-22T15:00:48.517Z,5.28
2022-11-22T15:03:17.988Z,5.24
2022-11-22T15:09:21.646Z,5.21
2022-11-22T15:09:23.699Z,5.14
2022-11-22T15:11:52.120Z,5.11
2022-11-22T15:14:21.543Z,5.05
2022-11-22T15:59:41.742Z,4.62
2022-11-22T16:02:15.171Z,4.59
2022-11-22T16:04:46.667Z,4.52
2022-11-22T16:07:23.429Z,4.49
2022-11-22T16:09:50.013Z,4.45
2022-11-22T16:12:35.708Z,4.43
2022-11-22T16:15:20.863Z,4.41
2022-11-22T16:17:55.003Z,4.38
2022-11-22T16:20:29.528Z,4.36
2022-11-22T16:23:06.038Z,4.37
2022-11-22T16:25:33.753Z,4.34
2022-11-22T16:28:01.279Z,4.31
2022-11-22T16:30:27.703Z,4.27
2022-11-22T16:32:56.509Z,4.25
2022-11-22T16:35:29.391Z,4.20
2022-11-22T16:37:56.380Z,4.20
2022-11-22T16:40:23.015Z,4.16
2022-11-22T16:42:49.464Z,4.15
2022-11-22T16:45:16.562Z,4.14
2022-11-22T16:47:43.408Z,4.11
2022-11-22T16:50:13.279Z,4.13
2022-11-22T16:52:40.205Z,4.11
2022-11-22T16:55:07.208Z,4.10
2022-11-22T16:57:33.656Z,4.12
2022-11-22T17:00:00.188Z,4.11
2022-11-22T17:02:26.644Z,4.14
2022-11-22T17:04:53.369Z,4.12
2022-11-22T17:07:20.085Z,4.12
2022-11-22T17:09:46.575Z,4.10
2022-11-22T17:12:33.953Z,4.10
2022-11-22T17:15:00.559Z,4.09
2022-11-22T17:17:26.971Z,4.09
2022-11-22T17:19:53.931Z,4.07
2022-11-22T17:22:20.509Z,4.08
2022-11-22T17:24:47.063Z,4.09
2022-11-22T17:27:14.478Z,4.12
2022-11-22T17:29:56.504Z,4.13
2022-11-22T17:32:23.132Z,4.20
2022-11-22T17:34:49.597Z,4.19
2022-11-22T17:37:16.059Z,4.20
2022-11-22T17:39:42.534Z,4.22
2022-11-22T17:42:08.952Z,4.24
2022-11-22T17:44:35.394Z,4.24
2022-11-22T17:47:01.818Z,4.23
2022-11-22T17:49:28.725Z,4.25
2022-11-22T17:51:55.904Z,4.24
2022-11-22T17:54:22.530Z,4.23
2022-11-22T17:56:49.053Z,4.21
2022-11-22T17:59:15.606Z,4.19
2022-11-22T18:01:43.327Z,4.19
2022-11-22T18:04:10.034Z,4.18
2022-11-22T18:06:36.487Z,4.18
2022-11-22T18:09:03.090Z,4.19
2022-11-22T18:11:29.539Z,4.21
2022-11-22T18:13:55.962Z,4.20
2022-11-22T18:16:28.452Z,4.17
2022-11-22T18:18:57.407Z,4.16
2022-11-22T18:21:29.251Z,4.14
2022-11-22T18:23:56.784Z,4.13
2022-11-22T18:26:38.786Z,4.11
2022-11-22T18:31:53.600Z,4.08
2022-11-22T18:34:20.897Z,4.08
2022-11-22T18:37:04.159Z,4.08
2022-11-22T18:39:32.389Z,4.06
2022-11-22T18:41:59.135Z,4.07
2022-11-22T18:44:25.680Z,4.06
2022-11-22T18:46:52.127Z,4.04
2022-11-22T18:49:18.624Z,4.04
2022-11-22T18:51:45.171Z,4.04
2022-11-22T18:54:11.869Z,4.00
2022-11-22T18:56:40.858Z,3.99
2022-11-22T18:59:08.505Z,3.95
2022-11-22T19:01:35.353Z,3.94
2022-11-22T19:04:03.381Z,3.92
2022-11-22T19:06:30.306Z,3.92
2022-11-22T19:08:56.896Z,3.91
2022-11-22T19:11:23.382Z,3.90
2022-11-22T19:13:49.824Z,3.91
2022-11-22T19:16:21.998Z,3.89
2022-11-22T19:18:48.721Z,3.89
2022-11-22T19:21:19.319Z,3.89
2022-11-22T19:23:45.934Z,3.88
2022-11-22T19:26:14.290Z,3.89
2022-11-22T19:28:41.565Z,3.88
2022-11-22T19:31:11.800Z,3.87
2022-11-22T19:33:38.342Z,3.82
2022-11-22T19:36:05.580Z,3.81
2022-11-22T19:38:32.016Z,3.79
2022-11-22T19:40:58.451Z,3.77
2022-11-22T19:43:24.950Z,3.78
2022-11-22T19:45:51.436Z,3.81
2022-11-22T19:48:17.967Z,3.79
2022-11-22T19:50:44.871Z,3.77
2022-11-22T19:53:11.504Z,3.74
2022-11-22T19:55:42.189Z,3.72
2022-11-22T19:58:20.350Z,3.70
2022-11-22T20:00:47.180Z,3.71
2022-11-22T20:03:13.692Z,3.73
2022-11-22T20:05:41.674Z,3.77
2022-11-22T20:08:08.431Z,3.74
2022-11-22T20:10:35.388Z,3.75
2022-11-22T20:13:02.896Z,3.74
2022-11-22T20:15:30.181Z,3.73
2022-11-22T20:17:56.649Z,3.71
2022-11-22T20:20:23.362Z,3.69
2022-11-22T20:22:49.889Z,3.68
2022-11-22T20:25:17.245Z,3.67
2022-11-22T20:27:43.750Z,3.64
2022-11-22T20:30:11.478Z,3.59
2022-11-22T20:32:39.925Z,3.54
2022-11-22T20:35:06.559Z,3.51
2022-11-22T20:37:34.658Z,3.48
2022-11-22T20:40:01.189Z,3.47
2022-11-22T20:42:35.405Z,3.46
2022-11-22T20:45:03.531Z,3.47
2022-11-22T20:47:30.690Z,3.45
2022-11-22T20:49:57.153Z,3.44
2022-11-22T20:52:23.732Z,3.43
2022-11-22T20:54:50.274Z,3.42
2022-11-22T20:57:16.802Z,3.39
2022-11-22T20:59:43.405Z,3.37
2022-11-22T21:02:10.437Z,3.33
2022-11-22T21:04:37.047Z,3.30
2022-11-22T21:07:04.010Z,3.25
2022-11-22T21:09:30.557Z,3.25
2022-11-22T21:11:57.011Z,3.23
2022-11-22T21:14:23.475Z,3.20
2022-11-22T21:16:49.920Z,3.18
2022-11-22T21:19:16.922Z,3.16
2022-11-22T21:21:43.368Z,3.15
2022-11-22T21:24:10.588Z,3.15
2022-11-22T21:26:37.118Z,3.15
2022-11-22T21:29:04.938Z,3.17
2022-11-22T21:31:31.388Z,3.18
2022-11-22T21:33:57.903Z,3.17
2022-11-22T21:36:24.546Z,3.19
2022-11-22T21:38:51.152Z,3.19
2022-11-22T21:44:05.591Z,3.18
2022-11-22T21:46:32.080Z,3.19
2022-11-22T21:48:58.623Z,3.19
2022-11-22T21:51:26.493Z,3.18
2022-11-22T21:53:59.783Z,3.15
2022-11-22T21:56:26.437Z,3.14
2022-11-22T21:58:53.024Z,3.09
2022-11-22T22:01:19.606Z,3.06
2022-11-22T22:03:46.222Z,3.02
2022-11-22T22:06:12.655Z,2.97
2022-11-22T22:08:43.591Z,2.93
2022-11-22T22:11:10.248Z,2.90
2022-11-22T22:13:36.909Z,2.89
2022-11-22T22:16:04.235Z,2.89
2022-11-22T22:18:35.710Z,2.90
2022-11-22T22:21:06.509Z,2.90
2022-11-22T22:23:36.827Z,2.91
2022-11-22T22:26:07.167Z,2.90
2022-11-22T22:28:34.193Z,2.90
2022-11-22T22:31:10.133Z,2.88
2022-11-22T22:33:37.636Z,2.88
2022-11-22T22:36:04.691Z,2.85
2022-11-22T22:38:31.387Z,2.85
2022-11-22T22:40:58.835Z,2.83
2022-11-22T22:43:25.629Z,2.83
2022-11-22T22:45:52.235Z,2.83
2022-11-22T22:48:18.967Z,2.84
2022-11-22T22:50:45.613Z,2.87
2022-11-22T22:53:12.172Z,2.88
2022-11-22T22:55:38.756Z,2.88
2022-11-22T22:58:05.402Z,2.88
2022-11-22T23:00:32.110Z,2.89
2022-11-22T23:02:58.683Z,2.90
2022-11-22T23:05:25.265Z,2.90
2022-11-22T23:07:51.940Z,2.88
2022-11-22T23:10:18.544Z,1.36
2022-11-22T23:12:45.268Z,2.85
2022-11-22T23:15:12.179Z,2.81
2022-11-22T23:17:38.763Z,2.79
2022-11-22T23:20:05.941Z,2.76
2022-11-22T23:22:32.532Z,1.98
2022-11-22T23:24:59.130Z,2.76
2022-11-22T23:27:25.744Z,2.74
2022-11-22T23:29:52.603Z,2.72
2022-11-22T23:32:19.256Z,2.71
2022-11-22T23:34:45.844Z,2.71
2022-11-22T23:37:12.394Z,2.72
2022-11-22T23:39:38.949Z,2.72
2022-11-22T23:42:05.547Z,2.70
2022-11-22T23:44:32.103Z,2.70
2022-11-22T23:46:58.624Z,2.68
2022-11-22T23:49:25.165Z,2.68
2022-11-22T23:51:51.775Z,2.69
2022-11-22T23:54:18.389Z,2.70
2022-11-22T23:56:44.931Z,2.69
2022-11-22T23:59:11.613Z,2.67
